sensor_id;sensor_type;location;lat;lon;timestamp;temperature;humidity
18339;DHT22;9295;44.484;11.240;2023-12-29T00:01:30;7.00;99.90
18339;DHT22;9295;44.484;11.240;2023-12-29T00:04:00;7.00;99.90
18339;DHT22;9295;44.484;11.240;2023-12-29T00:06:28;7.00;99.90
18339;DHT22;9295;44.484;11.240;2023-12-29T00:08:59;7.00;99.90
18339;DHT22;9295;44.484;11.240;2023-12-29T00:11:28;7.00;99.90
18339;DHT22;9295;44.484;11.240;2023-12-29T00:13:56;7.00;99.90
18339;DHT22;9295;44.484;11.240;2023-12-29T00:16:26;7.10;99.90
18339;DHT22;9295;44.484;11.240;2023-12-29T00:18:55;7.20;99.90
18339;DHT22;9295;44.484;11.240;2023-12-29T00:21:24;7.30;99.90
18339;DHT22;9295;44.484;11.240;2023-12-29T00:23:52;7.40;99.90
18339;DHT22;9295;44.484;11.240;2023-12-29T00:26:22;7.40;99.90
18339;DHT22;9295;44.484;11.240;2023-12-29T00:28:57;7.50;99.90
18339;DHT22;9295;44.484;11.240;2023-12-29T00:31:25;7.60;99.90
18339;DHT22;9295;44.484;11.240;2023-12-29T00:33:54;7.70;99.90
18339;DHT22;9295;44.484;11.240;2023-12-29T00:36:24;7.70;99.90
18339;DHT22;9295;44.484;11.240;2023-12-29T00:38:53;7.60;99.90
18339;DHT22;9295;44.484;11.240;2023-12-29T00:41:23;7.60;99.90
18339;DHT22;9295;44.484;11.240;2023-12-29T00:43:51;7.60;99.90
18339;DHT22;9295;44.484;11.240;2023-12-29T00:46:20;7.50;99.90
18339;DHT22;9295;44.484;11.240;2023-12-29T00:48:49;7.40;99.90
18339;DHT22;9295;44.484;11.240;2023-12-29T00:51:18;7.40;99.90
18339;DHT22;9295;44.484;11.240;2023-12-29T00:53:46;7.40;99.90
18339;DHT22;9295;44.484;11.240;2023-12-29T00:56:15;7.40;99.90
18339;DHT22;9295;44.484;11.240;2023-12-29T00:58:45;7.40;99.90
18339;DHT22;9295;44.484;11.240;2023-12-29T01:01:14;7.40;99.90
18339;DHT22;9295;44.484;11.240;2023-12-29T01:03:42;7.50;99.90
18339;DHT22;9295;44.484;11.240;2023-12-29T01:06:11;7.60;99.90
18339;DHT22;9295;44.484;11.240;2023-12-29T01:08:40;7.60;99.90
18339;DHT22;9295;44.484;11.240;2023-12-29T01:11:09;7.60;99.90
18339;DHT22;9295;44.484;11.240;2023-12-29T01:13:37;7.70;99.90
18339;DHT22;9295;44.484;11.240;2023-12-29T01:16:07;7.70;99.90
18339;DHT22;9295;44.484;11.240;2023-12-29T01:18:36;7.80;99.90
18339;DHT22;9295;44.484;11.240;2023-12-29T01:21:06;7.80;99.90
18339;DHT22;9295;44.484;11.240;2023-12-29T01:23:34;7.80;99.90
18339;DHT22;9295;44.484;11.240;2023-12-29T01:26:04;7.90;99.90
18339;DHT22;9295;44.484;11.240;2023-12-29T01:28:33;7.80;99.90
18339;DHT22;9295;44.484;11.240;2023-12-29T01:31:03;7.80;99.90
18339;DHT22;9295;44.484;11.240;2023-12-29T01:33:33;7.80;99.90
18339;DHT22;9295;44.484;11.240;2023-12-29T01:36:02;7.80;99.90
18339;DHT22;9295;44.484;11.240;2023-12-29T01:38:41;7.90;99.90
18339;DHT22;9295;44.484;11.240;2023-12-29T01:41:10;7.90;99.90
18339;DHT22;9295;44.484;11.240;2023-12-29T01:44:19;7.90;99.90
18339;DHT22;9295;44.484;11.240;2023-12-29T01:46:50;7.90;99.90
18339;DHT22;9295;44.484;11.240;2023-12-29T01:49:21;7.90;99.90
18339;DHT22;9295;44.484;11.240;2023-12-29T01:51:52;8.00;99.90
18339;DHT22;9295;44.484;11.240;2023-12-29T01:54:24;8.00;99.90
18339;DHT22;9295;44.484;11.240;2023-12-29T01:56:55;8.10;99.90
18339;DHT22;9295;44.484;11.240;2023-12-29T01:59:25;8.10;99.90
18339;DHT22;9295;44.484;11.240;2023-12-29T02:01:55;8.20;99.90
18339;DHT22;9295;44.484;11.240;2023-12-29T02:04:26;8.20;99.90
18339;DHT22;9295;44.484;11.240;2023-12-29T02:06:55;8.20;99.90
18339;DHT22;9295;44.484;11.240;2023-12-29T02:09:25;8.30;99.90
18339;DHT22;9295;44.484;11.240;2023-12-29T02:11:54;8.30;99.90
18339;DHT22;9295;44.484;11.240;2023-12-29T02:14:24;8.30;99.90
18339;DHT22;9295;44.484;11.240;2023-12-29T02:16:58;8.30;99.90
18339;DHT22;9295;44.484;11.240;2023-12-29T02:19:38;8.30;99.90
18339;DHT22;9295;44.484;11.240;2023-12-29T02:22:09;8.30;99.90
18339;DHT22;9295;44.484;11.240;2023-12-29T02:24:39;8.40;99.90
18339;DHT22;9295;44.484;11.240;2023-12-29T02:27:21;8.30;99.90
18339;DHT22;9295;44.484;11.240;2023-12-29T02:30:09;8.30;99.90
18339;DHT22;9295;44.484;11.240;2023-12-29T02:32:41;8.30;99.90
18339;DHT22;9295;44.484;11.240;2023-12-29T02:35:13;8.30;99.90
18339;DHT22;9295;44.484;11.240;2023-12-29T02:37:42;8.30;99.90
18339;DHT22;9295;44.484;11.240;2023-12-29T02:40:12;8.40;99.90
18339;DHT22;9295;44.484;11.240;2023-12-29T02:42:46;8.30;99.90
18339;DHT22;9295;44.484;11.240;2023-12-29T02:45:16;8.30;99.90
18339;DHT22;9295;44.484;11.240;2023-12-29T02:47:44;8.30;99.90
18339;DHT22;9295;44.484;11.240;2023-12-29T02:50:15;8.30;99.90
18339;DHT22;9295;44.484;11.240;2023-12-29T02:52:43;8.30;99.90
18339;DHT22;9295;44.484;11.240;2023-12-29T02:55:12;8.30;99.90
18339;DHT22;9295;44.484;11.240;2023-12-29T02:57:41;8.30;99.90
18339;DHT22;9295;44.484;11.240;2023-12-29T03:00:12;8.40;99.90
18339;DHT22;9295;44.484;11.240;2023-12-29T03:02:42;8.40;99.90
18339;DHT22;9295;44.484;11.240;2023-12-29T03:05:12;8.40;99.90
18339;DHT22;9295;44.484;11.240;2023-12-29T03:07:42;8.50;99.90
18339;DHT22;9295;44.484;11.240;2023-12-29T03:10:11;8.50;99.90
18339;DHT22;9295;44.484;11.240;2023-12-29T03:12:40;8.40;99.90
18339;DHT22;9295;44.484;11.240;2023-12-29T03:15:11;8.50;99.90
18339;DHT22;9295;44.484;11.240;2023-12-29T03:17:40;8.50;99.90
18339;DHT22;9295;44.484;11.240;2023-12-29T03:20:09;8.50;99.90
18339;DHT22;9295;44.484;11.240;2023-12-29T03:22:38;8.60;99.90
18339;DHT22;9295;44.484;11.240;2023-12-29T03:25:07;8.60;99.90
18339;DHT22;9295;44.484;11.240;2023-12-29T03:27:36;8.60;99.90
18339;DHT22;9295;44.484;11.240;2023-12-29T03:30:06;8.70;99.90
18339;DHT22;9295;44.484;11.240;2023-12-29T03:32:36;8.70;99.90
18339;DHT22;9295;44.484;11.240;2023-12-29T03:35:06;8.70;99.90
18339;DHT22;9295;44.484;11.240;2023-12-29T03:37:34;8.70;99.90
18339;DHT22;9295;44.484;11.240;2023-12-29T03:40:04;8.70;99.90
18339;DHT22;9295;44.484;11.240;2023-12-29T03:42:33;8.70;99.90
18339;DHT22;9295;44.484;11.240;2023-12-29T03:45:02;8.70;99.90
18339;DHT22;9295;44.484;11.240;2023-12-29T03:47:30;8.70;99.90
18339;DHT22;9295;44.484;11.240;2023-12-29T03:50:01;8.70;99.90
18339;DHT22;9295;44.484;11.240;2023-12-29T03:52:30;8.60;99.90
18339;DHT22;9295;44.484;11.240;2023-12-29T03:54:59;8.60;99.90
18339;DHT22;9295;44.484;11.240;2023-12-29T03:57:28;8.60;99.90
18339;DHT22;9295;44.484;11.240;2023-12-29T03:59:56;8.60;99.90
18339;DHT22;9295;44.484;11.240;2023-12-29T04:02:25;8.60;99.90
18339;DHT22;9295;44.484;11.240;2023-12-29T04:04:53;8.60;99.90
18339;DHT22;9295;44.484;11.240;2023-12-29T04:07:23;8.60;99.90
18339;DHT22;9295;44.484;11.240;2023-12-29T04:09:52;8.60;99.90
18339;DHT22;9295;44.484;11.240;2023-12-29T04:12:21;8.60;99.90
18339;DHT22;9295;44.484;11.240;2023-12-29T04:14:51;8.50;99.90
18339;DHT22;9295;44.484;11.240;2023-12-29T04:17:19;8.50;99.90
18339;DHT22;9295;44.484;11.240;2023-12-29T04:19:48;8.40;99.90
18339;DHT22;9295;44.484;11.240;2023-12-29T04:22:16;8.30;99.90
18339;DHT22;9295;44.484;11.240;2023-12-29T04:24:46;8.30;99.90
18339;DHT22;9295;44.484;11.240;2023-12-29T04:27:15;8.20;99.90
18339;DHT22;9295;44.484;11.240;2023-12-29T04:29:44;8.20;99.90
18339;DHT22;9295;44.484;11.240;2023-12-29T04:32:12;8.10;99.90
18339;DHT22;9295;44.484;11.240;2023-12-29T04:34:43;8.00;99.90
18339;DHT22;9295;44.484;11.240;2023-12-29T04:37:12;8.00;99.90
18339;DHT22;9295;44.484;11.240;2023-12-29T04:39:40;7.90;99.90
18339;DHT22;9295;44.484;11.240;2023-12-29T04:42:10;7.80;99.90
18339;DHT22;9295;44.484;11.240;2023-12-29T04:44:39;7.80;99.90
18339;DHT22;9295;44.484;11.240;2023-12-29T04:47:07;7.70;99.90
18339;DHT22;9295;44.484;11.240;2023-12-29T04:49:36;7.60;99.90
18339;DHT22;9295;44.484;11.240;2023-12-29T04:52:05;7.50;99.90
18339;DHT22;9295;44.484;11.240;2023-12-29T04:54:34;7.40;99.90
18339;DHT22;9295;44.484;11.240;2023-12-29T04:57:03;7.40;99.90
18339;DHT22;9295;44.484;11.240;2023-12-29T04:59:33;7.30;99.90
18339;DHT22;9295;44.484;11.240;2023-12-29T05:02:01;7.30;99.90
18339;DHT22;9295;44.484;11.240;2023-12-29T05:04:30;7.30;99.90
18339;DHT22;9295;44.484;11.240;2023-12-29T05:06:59;7.30;99.90
18339;DHT22;9295;44.484;11.240;2023-12-29T05:09:27;7.20;99.90
18339;DHT22;9295;44.484;11.240;2023-12-29T05:11:56;7.20;99.90
18339;DHT22;9295;44.484;11.240;2023-12-29T05:14:25;7.10;99.90
18339;DHT22;9295;44.484;11.240;2023-12-29T05:16:55;7.10;99.90
18339;DHT22;9295;44.484;11.240;2023-12-29T05:19:23;7.00;99.90
18339;DHT22;9295;44.484;11.240;2023-12-29T05:21:52;6.90;99.90
18339;DHT22;9295;44.484;11.240;2023-12-29T05:24:21;6.90;99.90
18339;DHT22;9295;44.484;11.240;2023-12-29T05:26:49;6.90;99.90
18339;DHT22;9295;44.484;11.240;2023-12-29T05:29:18;6.90;99.90
18339;DHT22;9295;44.484;11.240;2023-12-29T05:31:46;6.90;99.90
18339;DHT22;9295;44.484;11.240;2023-12-29T05:34:17;6.90;99.90
18339;DHT22;9295;44.484;11.240;2023-12-29T05:36:45;6.90;99.90
18339;DHT22;9295;44.484;11.240;2023-12-29T05:39:17;6.80;99.90
18339;DHT22;9295;44.484;11.240;2023-12-29T05:41:45;6.80;99.90
18339;DHT22;9295;44.484;11.240;2023-12-29T05:44:14;6.70;99.90
18339;DHT22;9295;44.484;11.240;2023-12-29T05:46:46;6.70;99.90
18339;DHT22;9295;44.484;11.240;2023-12-29T05:49:16;6.60;99.90
18339;DHT22;9295;44.484;11.240;2023-12-29T05:51:45;6.60;99.90
18339;DHT22;9295;44.484;11.240;2023-12-29T05:54:14;6.50;99.90
18339;DHT22;9295;44.484;11.240;2023-12-29T05:56:43;6.50;99.90
18339;DHT22;9295;44.484;11.240;2023-12-29T05:59:12;6.50;99.90
18339;DHT22;9295;44.484;11.240;2023-12-29T06:01:40;6.30;99.90
18339;DHT22;9295;44.484;11.240;2023-12-29T06:04:09;6.30;99.90
18339;DHT22;9295;44.484;11.240;2023-12-29T06:06:41;6.30;99.90
18339;DHT22;9295;44.484;11.240;2023-12-29T06:09:10;6.30;99.90
18339;DHT22;9295;44.484;11.240;2023-12-29T06:11:39;6.30;99.90
18339;DHT22;9295;44.484;11.240;2023-12-29T06:14:07;6.20;99.90
18339;DHT22;9295;44.484;11.240;2023-12-29T06:16:37;6.20;99.90
18339;DHT22;9295;44.484;11.240;2023-12-29T06:19:06;6.20;99.90
18339;DHT22;9295;44.484;11.240;2023-12-29T06:21:42;6.30;99.90
18339;DHT22;9295;44.484;11.240;2023-12-29T06:24:11;6.30;99.90
18339;DHT22;9295;44.484;11.240;2023-12-29T06:26:40;6.30;99.90
18339;DHT22;9295;44.484;11.240;2023-12-29T06:29:10;6.30;99.90
18339;DHT22;9295;44.484;11.240;2023-12-29T06:31:40;6.30;99.90
18339;DHT22;9295;44.484;11.240;2023-12-29T06:34:10;6.20;99.90
18339;DHT22;9295;44.484;11.240;2023-12-29T06:36:39;6.10;99.90
18339;DHT22;9295;44.484;11.240;2023-12-29T06:39:09;6.10;99.90
18339;DHT22;9295;44.484;11.240;2023-12-29T06:41:37;6.10;99.90
18339;DHT22;9295;44.484;11.240;2023-12-29T06:44:06;6.10;99.90
18339;DHT22;9295;44.484;11.240;2023-12-29T06:46:36;6.00;99.90
18339;DHT22;9295;44.484;11.240;2023-12-29T06:49:07;6.00;99.90
18339;DHT22;9295;44.484;11.240;2023-12-29T06:51:36;6.00;99.90
18339;DHT22;9295;44.484;11.240;2023-12-29T06:54:06;6.00;99.90
18339;DHT22;9295;44.484;11.240;2023-12-29T06:56:36;6.00;99.90
18339;DHT22;9295;44.484;11.240;2023-12-29T06:59:06;5.90;99.90
18339;DHT22;9295;44.484;11.240;2023-12-29T07:01:38;5.90;99.90
18339;DHT22;9295;44.484;11.240;2023-12-29T07:04:08;5.90;99.90
18339;DHT22;9295;44.484;11.240;2023-12-29T07:06:38;5.90;99.90
18339;DHT22;9295;44.484;11.240;2023-12-29T07:09:07;5.90;99.90
18339;DHT22;9295;44.484;11.240;2023-12-29T07:11:38;5.90;99.90
18339;DHT22;9295;44.484;11.240;2023-12-29T07:14:07;6.00;99.90
18339;DHT22;9295;44.484;11.240;2023-12-29T07:16:35;6.10;99.90
18339;DHT22;9295;44.484;11.240;2023-12-29T07:19:04;6.20;99.90
18339;DHT22;9295;44.484;11.240;2023-12-29T07:21:33;6.40;99.90
18339;DHT22;9295;44.484;11.240;2023-12-29T07:24:02;6.60;99.90
18339;DHT22;9295;44.484;11.240;2023-12-29T07:26:32;6.70;99.90
18339;DHT22;9295;44.484;11.240;2023-12-29T07:29:05;6.80;99.90
18339;DHT22;9295;44.484;11.240;2023-12-29T07:31:38;6.90;99.90
18339;DHT22;9295;44.484;11.240;2023-12-29T07:34:07;7.10;99.90
18339;DHT22;9295;44.484;11.240;2023-12-29T07:36:38;7.40;99.90
18339;DHT22;9295;44.484;11.240;2023-12-29T07:39:07;8.00;99.90
18339;DHT22;9295;44.484;11.240;2023-12-29T07:41:40;8.50;99.90
18339;DHT22;9295;44.484;11.240;2023-12-29T07:44:11;8.90;99.90
18339;DHT22;9295;44.484;11.240;2023-12-29T07:46:40;9.00;99.90
18339;DHT22;9295;44.484;11.240;2023-12-29T07:49:09;9.20;99.90
18339;DHT22;9295;44.484;11.240;2023-12-29T07:51:41;9.10;99.90
18339;DHT22;9295;44.484;11.240;2023-12-29T07:54:10;8.90;99.90
18339;DHT22;9295;44.484;11.240;2023-12-29T07:56:39;8.60;99.90
18339;DHT22;9295;44.484;11.240;2023-12-29T07:59:07;8.40;99.90
18339;DHT22;9295;44.484;11.240;2023-12-29T08:01:37;8.30;99.90
18339;DHT22;9295;44.484;11.240;2023-12-29T08:04:06;8.20;99.90
18339;DHT22;9295;44.484;11.240;2023-12-29T08:06:38;8.20;99.90
18339;DHT22;9295;44.484;11.240;2023-12-29T08:09:07;8.20;99.90
18339;DHT22;9295;44.484;11.240;2023-12-29T08:11:35;8.00;99.90
18339;DHT22;9295;44.484;11.240;2023-12-29T08:14:04;8.00;99.90
18339;DHT22;9295;44.484;11.240;2023-12-29T08:16:39;8.10;99.90
18339;DHT22;9295;44.484;11.240;2023-12-29T08:19:08;8.40;99.90
18339;DHT22;9295;44.484;11.240;2023-12-29T08:21:38;8.70;99.90
18339;DHT22;9295;44.484;11.240;2023-12-29T08:24:06;8.90;99.90
18339;DHT22;9295;44.484;11.240;2023-12-29T08:26:43;9.10;99.90
18339;DHT22;9295;44.484;11.240;2023-12-29T08:29:12;9.20;99.90
18339;DHT22;9295;44.484;11.240;2023-12-29T08:31:42;9.30;99.90
18339;DHT22;9295;44.484;11.240;2023-12-29T08:34:12;9.40;99.90
18339;DHT22;9295;44.484;11.240;2023-12-29T08:36:40;9.50;99.90
18339;DHT22;9295;44.484;11.240;2023-12-29T08:39:09;9.60;99.90
18339;DHT22;9295;44.484;11.240;2023-12-29T08:41:39;9.60;99.90
18339;DHT22;9295;44.484;11.240;2023-12-29T08:44:08;9.70;99.90
18339;DHT22;9295;44.484;11.240;2023-12-29T08:46:36;9.70;99.90
18339;DHT22;9295;44.484;11.240;2023-12-29T08:49:06;9.80;99.90
18339;DHT22;9295;44.484;11.240;2023-12-29T08:51:36;9.90;99.90
18339;DHT22;9295;44.484;11.240;2023-12-29T08:54:05;9.80;99.90
18339;DHT22;9295;44.484;11.240;2023-12-29T08:56:34;9.90;99.90
18339;DHT22;9295;44.484;11.240;2023-12-29T08:59:03;10.00;99.90
18339;DHT22;9295;44.484;11.240;2023-12-29T09:01:32;10.00;99.90
18339;DHT22;9295;44.484;11.240;2023-12-29T09:04:00;10.00;99.90
18339;DHT22;9295;44.484;11.240;2023-12-29T09:06:31;10.30;99.90
18339;DHT22;9295;44.484;11.240;2023-12-29T09:08:59;10.50;99.90
18339;DHT22;9295;44.484;11.240;2023-12-29T09:11:28;10.70;99.90
18339;DHT22;9295;44.484;11.240;2023-12-29T09:13:57;10.90;99.90
18339;DHT22;9295;44.484;11.240;2023-12-29T09:16:25;11.00;99.90
18339;DHT22;9295;44.484;11.240;2023-12-29T09:18:54;11.20;99.90
18339;DHT22;9295;44.484;11.240;2023-12-29T09:21:23;11.30;99.90
18339;DHT22;9295;44.484;11.240;2023-12-29T09:23:53;11.40;99.90
18339;DHT22;9295;44.484;11.240;2023-12-29T09:26:21;11.50;99.90
18339;DHT22;9295;44.484;11.240;2023-12-29T09:28:50;11.60;99.90
18339;DHT22;9295;44.484;11.240;2023-12-29T09:31:18;11.70;99.90
18339;DHT22;9295;44.484;11.240;2023-12-29T09:33:47;11.70;99.90
18339;DHT22;9295;44.484;11.240;2023-12-29T09:36:16;11.80;99.90
18339;DHT22;9295;44.484;11.240;2023-12-29T09:38:44;11.80;99.90
18339;DHT22;9295;44.484;11.240;2023-12-29T09:41:15;11.70;99.90
18339;DHT22;9295;44.484;11.240;2023-12-29T09:43:47;11.90;99.90
18339;DHT22;9295;44.484;11.240;2023-12-29T09:46:19;12.00;99.90
18339;DHT22;9295;44.484;11.240;2023-12-29T09:48:52;12.00;99.90
18339;DHT22;9295;44.484;11.240;2023-12-29T09:51:23;12.10;99.90
18339;DHT22;9295;44.484;11.240;2023-12-29T09:53:54;12.20;99.90
18339;DHT22;9295;44.484;11.240;2023-12-29T09:56:27;12.30;99.90
18339;DHT22;9295;44.484;11.240;2023-12-29T09:58:56;12.30;99.90
18339;DHT22;9295;44.484;11.240;2023-12-29T10:01:25;12.40;99.90
18339;DHT22;9295;44.484;11.240;2023-12-29T10:03:57;12.30;99.90
18339;DHT22;9295;44.484;11.240;2023-12-29T10:06:26;12.00;99.90
18339;DHT22;9295;44.484;11.240;2023-12-29T10:08:56;11.60;99.90
18339;DHT22;9295;44.484;11.240;2023-12-29T10:11:27;11.50;99.90
18339;DHT22;9295;44.484;11.240;2023-12-29T10:13:59;11.40;99.90
18339;DHT22;9295;44.484;11.240;2023-12-29T10:16:37;11.50;99.90
18339;DHT22;9295;44.484;11.240;2023-12-29T10:19:14;11.50;99.90
18339;DHT22;9295;44.484;11.240;2023-12-29T10:21:51;11.50;99.90
18339;DHT22;9295;44.484;11.240;2023-12-29T10:24:21;11.30;99.90
18339;DHT22;9295;44.484;11.240;2023-12-29T10:26:51;11.10;99.90
18339;DHT22;9295;44.484;11.240;2023-12-29T10:29:21;11.00;99.90
18339;DHT22;9295;44.484;11.240;2023-12-29T10:31:51;11.00;99.90
18339;DHT22;9295;44.484;11.240;2023-12-29T10:34:21;10.90;99.90
18339;DHT22;9295;44.484;11.240;2023-12-29T10:36:57;10.90;99.90
18339;DHT22;9295;44.484;11.240;2023-12-29T10:39:26;11.10;99.90
18339;DHT22;9295;44.484;11.240;2023-12-29T10:42:04;11.30;99.90
18339;DHT22;9295;44.484;11.240;2023-12-29T10:44:34;11.40;99.90
18339;DHT22;9295;44.484;11.240;2023-12-29T10:47:09;11.40;99.90
18339;DHT22;9295;44.484;11.240;2023-12-29T10:49:38;11.30;99.90
18339;DHT22;9295;44.484;11.240;2023-12-29T10:52:11;11.20;99.90
18339;DHT22;9295;44.484;11.240;2023-12-29T10:54:41;11.40;99.90
18339;DHT22;9295;44.484;11.240;2023-12-29T10:57:12;11.60;99.90
18339;DHT22;9295;44.484;11.240;2023-12-29T10:59:41;11.60;99.90
18339;DHT22;9295;44.484;11.240;2023-12-29T11:02:12;11.60;99.90
18339;DHT22;9295;44.484;11.240;2023-12-29T11:04:43;11.60;99.90
18339;DHT22;9295;44.484;11.240;2023-12-29T11:07:12;11.70;99.90
18339;DHT22;9295;44.484;11.240;2023-12-29T11:09:41;11.70;99.90
18339;DHT22;9295;44.484;11.240;2023-12-29T11:12:12;11.70;99.90
18339;DHT22;9295;44.484;11.240;2023-12-29T11:14:41;11.80;99.90
18339;DHT22;9295;44.484;11.240;2023-12-29T11:17:14;11.90;99.90
18339;DHT22;9295;44.484;11.240;2023-12-29T11:19:46;12.00;99.90
18339;DHT22;9295;44.484;11.240;2023-12-29T11:22:16;12.00;99.90
18339;DHT22;9295;44.484;11.240;2023-12-29T11:24:46;11.90;99.90
18339;DHT22;9295;44.484;11.240;2023-12-29T11:27:18;11.90;99.90
18339;DHT22;9295;44.484;11.240;2023-12-29T11:29:47;11.90;99.90
18339;DHT22;9295;44.484;11.240;2023-12-29T11:32:20;12.00;99.90
18339;DHT22;9295;44.484;11.240;2023-12-29T11:34:53;12.00;99.90
18339;DHT22;9295;44.484;11.240;2023-12-29T11:37:31;12.10;99.90
18339;DHT22;9295;44.484;11.240;2023-12-29T11:40:11;12.20;99.90
18339;DHT22;9295;44.484;11.240;2023-12-29T11:42:45;12.30;99.90
18339;DHT22;9295;44.484;11.240;2023-12-29T11:45:24;12.30;99.90
18339;DHT22;9295;44.484;11.240;2023-12-29T11:47:54;12.40;99.90
18339;DHT22;9295;44.484;11.240;2023-12-29T11:50:31;12.40;99.90
18339;DHT22;9295;44.484;11.240;2023-12-29T11:53:00;12.50;99.90
18339;DHT22;9295;44.484;11.240;2023-12-29T11:55:31;12.50;99.90
18339;DHT22;9295;44.484;11.240;2023-12-29T11:58:04;12.50;99.90
18339;DHT22;9295;44.484;11.240;2023-12-29T12:00:43;12.50;99.90
18339;DHT22;9295;44.484;11.240;2023-12-29T12:03:16;12.60;99.90
18339;DHT22;9295;44.484;11.240;2023-12-29T12:05:47;12.60;99.90
18339;DHT22;9295;44.484;11.240;2023-12-29T12:08:30;12.70;99.90
18339;DHT22;9295;44.484;11.240;2023-12-29T12:14:02;12.80;99.90
18339;DHT22;9295;44.484;11.240;2023-12-29T12:16:50;12.90;99.90
18339;DHT22;9295;44.484;11.240;2023-12-29T12:19:20;13.00;99.90
18339;DHT22;9295;44.484;11.240;2023-12-29T12:21:53;13.00;99.90
18339;DHT22;9295;44.484;11.240;2023-12-29T12:24:23;13.00;99.90
18339;DHT22;9295;44.484;11.240;2023-12-29T12:26:54;13.00;99.90
18339;DHT22;9295;44.484;11.240;2023-12-29T12:29:24;13.00;99.90
18339;DHT22;9295;44.484;11.240;2023-12-29T12:31:54;13.00;99.90
18339;DHT22;9295;44.484;11.240;2023-12-29T12:34:23;12.90;99.90
18339;DHT22;9295;44.484;11.240;2023-12-29T12:36:53;13.10;99.90
18339;DHT22;9295;44.484;11.240;2023-12-29T12:39:24;13.20;99.90
18339;DHT22;9295;44.484;11.240;2023-12-29T12:41:52;13.40;99.90
18339;DHT22;9295;44.484;11.240;2023-12-29T12:44:21;13.40;99.90
18339;DHT22;9295;44.484;11.240;2023-12-29T12:46:59;13.50;99.90
18339;DHT22;9295;44.484;11.240;2023-12-29T12:49:29;13.50;99.90
18339;DHT22;9295;44.484;11.240;2023-12-29T12:51:58;13.60;99.90
18339;DHT22;9295;44.484;11.240;2023-12-29T12:54:27;13.60;99.90
18339;DHT22;9295;44.484;11.240;2023-12-29T12:56:56;13.50;99.90
18339;DHT22;9295;44.484;11.240;2023-12-29T12:59:25;13.40;99.90
18339;DHT22;9295;44.484;11.240;2023-12-29T13:01:57;13.40;99.90
18339;DHT22;9295;44.484;11.240;2023-12-29T13:04:26;13.60;99.90
18339;DHT22;9295;44.484;11.240;2023-12-29T13:06:55;13.70;99.90
18339;DHT22;9295;44.484;11.240;2023-12-29T13:09:23;13.70;99.90
18339;DHT22;9295;44.484;11.240;2023-12-29T13:12:07;13.70;99.90
18339;DHT22;9295;44.484;11.240;2023-12-29T13:14:36;13.70;99.90
18339;DHT22;9295;44.484;11.240;2023-12-29T13:17:11;13.80;99.90
18339;DHT22;9295;44.484;11.240;2023-12-29T13:19:40;13.70;99.90
18339;DHT22;9295;44.484;11.240;2023-12-29T13:22:11;13.50;99.90
18339;DHT22;9295;44.484;11.240;2023-12-29T13:24:45;13.50;99.90
18339;DHT22;9295;44.484;11.240;2023-12-29T13:27:15;13.50;99.90
18339;DHT22;9295;44.484;11.240;2023-12-29T13:29:44;13.50;99.90
18339;DHT22;9295;44.484;11.240;2023-12-29T13:32:19;13.50;99.90
18339;DHT22;9295;44.484;11.240;2023-12-29T13:34:55;13.50;99.90
18339;DHT22;9295;44.484;11.240;2023-12-29T13:37:31;13.40;99.90
18339;DHT22;9295;44.484;11.240;2023-12-29T13:40:09;13.40;99.90
18339;DHT22;9295;44.484;11.240;2023-12-29T13:42:41;13.40;99.90
18339;DHT22;9295;44.484;11.240;2023-12-29T13:45:12;13.30;99.90
18339;DHT22;9295;44.484;11.240;2023-12-29T13:47:46;13.20;99.90
18339;DHT22;9295;44.484;11.240;2023-12-29T13:50:15;13.10;99.90
18339;DHT22;9295;44.484;11.240;2023-12-29T13:52:43;12.80;99.90
18339;DHT22;9295;44.484;11.240;2023-12-29T13:55:12;12.60;99.90
18339;DHT22;9295;44.484;11.240;2023-12-29T13:57:49;12.70;99.90
18339;DHT22;9295;44.484;11.240;2023-12-29T14:00:18;12.80;99.90
18339;DHT22;9295;44.484;11.240;2023-12-29T14:03:02;12.90;99.90
18339;DHT22;9295;44.484;11.240;2023-12-29T14:05:35;13.00;99.90
18339;DHT22;9295;44.484;11.240;2023-12-29T14:08:09;13.00;99.90
18339;DHT22;9295;44.484;11.240;2023-12-29T14:10:38;13.10;99.90
18339;DHT22;9295;44.484;11.240;2023-12-29T14:13:08;13.20;99.90
18339;DHT22;9295;44.484;11.240;2023-12-29T14:15:37;13.20;99.90
18339;DHT22;9295;44.484;11.240;2023-12-29T14:18:21;13.20;99.90
18339;DHT22;9295;44.484;11.240;2023-12-29T14:20:55;13.30;99.90
18339;DHT22;9295;44.484;11.240;2023-12-29T14:23:24;13.30;99.90
18339;DHT22;9295;44.484;11.240;2023-12-29T14:25:52;13.20;99.90
18339;DHT22;9295;44.484;11.240;2023-12-29T14:28:21;13.20;99.90
18339;DHT22;9295;44.484;11.240;2023-12-29T14:31:01;13.20;99.90
18339;DHT22;9295;44.484;11.240;2023-12-29T14:33:32;13.30;99.90
18339;DHT22;9295;44.484;11.240;2023-12-29T14:36:00;13.30;99.90
18339;DHT22;9295;44.484;11.240;2023-12-29T14:38:29;13.30;99.90
18339;DHT22;9295;44.484;11.240;2023-12-29T14:40:57;13.30;99.90
18339;DHT22;9295;44.484;11.240;2023-12-29T14:43:27;13.30;99.90
18339;DHT22;9295;44.484;11.240;2023-12-29T14:45:56;13.30;99.90
18339;DHT22;9295;44.484;11.240;2023-12-29T14:48:25;13.40;99.90
18339;DHT22;9295;44.484;11.240;2023-12-29T14:50:55;13.30;99.90
18339;DHT22;9295;44.484;11.240;2023-12-29T14:53:25;13.20;99.90
18339;DHT22;9295;44.484;11.240;2023-12-29T14:55:53;13.20;99.90
18339;DHT22;9295;44.484;11.240;2023-12-29T14:58:22;13.10;99.90
18339;DHT22;9295;44.484;11.240;2023-12-29T15:00:50;13.00;99.90
18339;DHT22;9295;44.484;11.240;2023-12-29T15:03:19;13.00;99.90
18339;DHT22;9295;44.484;11.240;2023-12-29T15:05:48;12.90;99.90
18339;DHT22;9295;44.484;11.240;2023-12-29T15:08:18;12.90;99.90
18339;DHT22;9295;44.484;11.240;2023-12-29T15:10:47;12.80;99.90
18339;DHT22;9295;44.484;11.240;2023-12-29T15:13:15;12.70;99.90
18339;DHT22;9295;44.484;11.240;2023-12-29T15:15:44;12.70;99.90
18339;DHT22;9295;44.484;11.240;2023-12-29T15:18:13;12.60;99.90
18339;DHT22;9295;44.484;11.240;2023-12-29T15:20:44;12.50;99.90
18339;DHT22;9295;44.484;11.240;2023-12-29T15:23:12;12.50;99.90
18339;DHT22;9295;44.484;11.240;2023-12-29T15:25:42;12.50;99.90
18339;DHT22;9295;44.484;11.240;2023-12-29T15:28:11;12.40;99.90
18339;DHT22;9295;44.484;11.240;2023-12-29T15:30:40;12.30;99.90
18339;DHT22;9295;44.484;11.240;2023-12-29T15:33:08;12.30;99.90
18339;DHT22;9295;44.484;11.240;2023-12-29T15:35:37;12.10;99.90
18339;DHT22;9295;44.484;11.240;2023-12-29T15:38:06;12.10;99.90
18339;DHT22;9295;44.484;11.240;2023-12-29T15:40:35;12.00;99.90
18339;DHT22;9295;44.484;11.240;2023-12-29T15:43:05;11.90;99.90
18339;DHT22;9295;44.484;11.240;2023-12-29T15:45:35;11.90;99.90
18339;DHT22;9295;44.484;11.240;2023-12-29T15:48:04;11.80;99.90
18339;DHT22;9295;44.484;11.240;2023-12-29T15:50:33;11.70;99.90
18339;DHT22;9295;44.484;11.240;2023-12-29T15:53:02;11.60;99.90
18339;DHT22;9295;44.484;11.240;2023-12-29T15:55:31;11.50;99.90
18339;DHT22;9295;44.484;11.240;2023-12-29T15:57:59;11.50;99.90
18339;DHT22;9295;44.484;11.240;2023-12-29T16:00:30;11.40;99.90
18339;DHT22;9295;44.484;11.240;2023-12-29T16:03:02;11.30;99.90